Al, Norway

7:51 AM CET on November 28, 2014 (GMT +0100)
Aal i Hallingdal | Change Station
CLOSE
Current Station
Personal Weather Station
Location: Aal, BUSKERUD
Elevation: 1475 ft
Nearby Weather Stations

Elev 1475 ft 60.62 °N, 8.52 °E | Updated 6 minutes ago

Mostly Cloudy
Mostly Cloudy
25.0 °F
Feels Like 25 °F
N
0.0
Wind Variable Wind from North
Gusts 0.0 mph

Today
High -- | Low -- °F
--% Chance of Precip.
Yesterday
High -- | Low -- °F
Precip. -- in
8:59 AM 3:27 PM
Waxing Crescent, 37% visible
Pressure 30.09 in
Visibility 6.2 miles
Clouds Scattered Clouds 1000 ft
Mostly Cloudy 1400 ft
Windchill 25 °F
Dew Point 24 °F
Humidity 97%
Rainfall 0.00 in
Snow Depth Not available.
UV 0 out of 12
Pollen Not available.
Air Quality Not available.
Flu Activity Not available.
METAR ENFG 280620Z VRB02KT 9999 FEW/// SCT010 BKN014 M05/M06 Q1019

More Conditions Fewer Conditions

Pressure 30.09 in
Visibility 6.2 miles
Clouds Scattered Clouds 1000 ft
Mostly Cloudy 1400 ft
Windchill 25 °F
Dew Point 24 °F
Humidity 97%
Rainfall 0.00 in
Snow Depth Not available.
UV 0 out of 12
Pollen Not available.
Air Quality Not available.
Flu Activity Not available.
METAR ENFG 280620Z VRB02KT 9999 FEW/// SCT010 BKN014 M05/M06 Q1019

More Conditions Fewer Conditions

10-Day Weather Forecast

Almanac

Astronomy

Nov. 28, 2014 Rise Set
Actual Time
Civil Twilight
Nautical Twilight
Astronomical Twilight
Moon
Length of Visible Light
Length of Day
Tomorrow will be .
, % of the Moon is Illuminated

Today's Extremes

Country Highs Country Lows

Community

WunderPhotos

Upload Photos

1,774,194 photos uploaded!

WunderBlogs® & News

Nearby

Air Quality

  Air Quality AQ Index Pollutant
Not available.

Snow Depth

Station Depth Elevation

Earthquake Activity

City Distance Mag. Time & Date
Minimum magnitude displayed is 2.5.

Coastal Water Temperatures

Place Temperature

Nearby Weather Stations